Kenema Airport

Jump to: basic info | weather | comments

Related pages: nearby airports | nearby navaids | notams | map

Basic information (top)

Codes: KEN GFKE
Location: lon 7.891290, lat -11.176600, elev 485 ft / 148 m msl
Status: medium_airport
Scheduled airline service: yes
Links: Wikipedia Mobile

Weather (top)

Current conditions for Roberts International Airport 111nm (205km) SSE (rec'd 2015/01/26 00:00Z):

GLRB 260000Z 00000KT 9999 FEW013 25/24 Q1012 NOSIG

Airport forecast for Roberts International Airport 111nm (205km) SSE (rec'd 2015/01/25 00:51Z):

TAF TAF GLRB 252200Z 2600/2706 17005KT 9000 SCT015 
      TEMPO 2601/2605 VRB03KT 7000 
      BECMG 2506/2508 05004KT 5000 BR SCT004 BKN013 
      TEMPO 2509/2514 24012KT 9999 BKN022

Latest comments (top)

No comments yet for Kenema Airport

More... (top)

See also NOTAMs and nearby airports and navaids, or visit the Kenema Airport page at the main OurAirports website..